Tinley Park, IL (60477)

18:26 CST 26. Únor 2015 (GMT -0600)
Chantilly | Change Station
CLOSE
Current Station
Osobní povětrnostní stanice
Location: Tinley Park, IL
Nadmořská výška: 709 ft
Poblíž povětrnostní stanice

Výška 709 ft 41.58 °N, 87.82 °W | Updated 13 minutes ago

Jasno
Jasno
13.8 °F
Pocit jako 7 °F
S
3.8
Vítr proměnlivý Vítr od SSZ

Dnes
Vysoké -- | Nízké -- °F
--% Možnost srážek
Včera
Vysoké -- | Nízké -- °F
Precip. -- inčů
6:30 AM 5:37 PM
Dorůstající měsíc, 63% visible
Tlak 30.33 inčů
Viditelnost 10.0 mílí
Zataženo Jasno
Ochlazování větrem 7 °F
Rosný bod 3 °F
Vlhkost 62%
Dešťové srážky 0.00 inčů
Sněhová pokrývka Není k dispozici
UV záření 0 ze 12
Pyl .40 ze 12
Kvalita ovzduší Není k dispozici
Flu Activity Není k dispozici
METAR KIGQ 270015Z AUTO 34003KT 10SM CLR M10/M16 A3033 RMK AO2 T11011161

More Conditions Fewer Conditions

Tlak 30.33 inčů
Viditelnost 10.0 mílí
Zataženo Jasno
Ochlazování větrem 7 °F
Rosný bod 3 °F
Vlhkost 62%
Dešťové srážky 0.00 inčů
Sněhová pokrývka Není k dispozici
UV záření 0 ze 12
Pyl .40 ze 12
Kvalita ovzduší Není k dispozici
Flu Activity Není k dispozici
METAR KIGQ 270015Z AUTO 34003KT 10SM CLR M10/M16 A3033 RMK AO2 T11011161

More Conditions Fewer Conditions

10-Day Weather Forecast

Almanac

Astronomie

Feb. 26, 2015 Východ Západ
Skutečný čas
Občanský soumrak
Námořní soumrak
Astronomický soumrak
Měsíc
Délka denního světla
Délka dne
Tomorrow will be .
, % of the Moon is Illuminated

Dnešní extrémy

State Highs State Lows

Community

WunderPhotos

Upload Photos

1,800,543 snímků staženo!

WunderBlogs® & News

Nearby

Kvalita ovzduší

  Kvalita ovzduší Index kvality ovzduší Polutant
Not available.

Výška sněhu

Station Hloubka Nadmořská výška

Seizmická činnost

Město Distance Mag. Čas & datum
Minimální zobrazený rozsah je 2.5.

Pobřežní teplota vody

Lokalita Teplota

Poblíž povětrnostní stanice

Wind Chill Advisory
Statement as of 15:58 CST 26. Únor 2015

... Wind Chill Advisory remains in effect from 2 am to 9 am CST
Friday...

* wind chill values... 20 below to 25 below zero overnight into
Friday morning.

* Other impacts... frost bite can occur in 15 to 30 minutes on
exposed skin at the lower end of these wind chill values.
Extended exposure without proper clothing will increase the
risk of hypothermia.

Precautionary/preparedness actions...

A Wind Chill Advisory means that the wind will combine with the
very cold air to generate low wind chills. This will result in
frost bite and lead to hypothermia if precautions are not taken.
If you must venture outdoors... make sure you wear a hat and
gloves.



Izzi

Visit US at http://weather.Gov/Chicago (all lowercase)

Follow US on facebook... twitter... and youtube at:
www.Facebook.Com/nwschicago